Guernsey, Wyoming
Current Conditions -  °F | °C
As of 4:55 PM on Tuesday 25 Nov 2014 (Local Time) from KGUR Reporting Station
Light Snow Light Snow  
Wind Chill: 34°   Ceiling: 1800
Heat Index: 40°   Visibility: 5mi
Dew Point: 37°   Wind: 10mph
Humidity: 87%   Direction: 340°NNW
Pressure: 29.96"   Gusts: 17mph
Location:  42.27°N, 104.74°W
Report Text: KGUR 252355Z AUTO 34009G15KT 5SM -SN OVC018 05/03 A2996 RMK AO2 T00450025 10106 20045
Loading
Personal Weather Stations






























Interactive Weather Map New forecast layout! Learn more

10-Day Weather Forecast

Advertisements
Track Severe Weather on mobile